sensor_id;sensor_type;location;lat;lon;timestamp;pressure;altitude;pressure_sealevel;temperature;humidity
11542;BME280;5827;49.482;7.716;2023-02-16T00:01:55;99841.59;;;0.78;100.00
11542;BME280;5827;49.482;7.716;2023-02-16T00:03:57;99833.50;;;0.54;100.00
11542;BME280;5827;49.482;7.716;2023-02-16T00:05:58;99835.53;;;0.60;100.00
11542;BME280;5827;49.482;7.716;2023-02-16T00:08:00;99827.66;;;0.68;100.00
11542;BME280;5827;49.482;7.716;2023-02-16T00:10:04;99831.75;;;0.62;100.00
11542;BME280;5827;49.482;7.716;2023-02-16T00:12:15;99824.06;;;0.69;100.00
11542;BME280;5827;49.482;7.716;2023-02-16T00:14:36;99823.06;;;0.70;100.00
11542;BME280;5827;49.482;7.716;2023-02-16T00:16:38;99825.38;;;0.73;100.00
11542;BME280;5827;49.482;7.716;2023-02-16T00:18:40;99828.66;;;0.67;100.00
11542;BME280;5827;49.482;7.716;2023-02-16T00:20:41;99827.66;;;0.68;100.00
11542;BME280;5827;49.482;7.716;2023-02-16T00:22:43;99826.47;;;0.62;100.00
11542;BME280;5827;49.482;7.716;2023-02-16T00:24:44;99830.91;;;0.62;100.00
11542;BME280;5827;49.482;7.716;2023-02-16T00:26:48;99827.47;;;0.61;100.00
11542;BME280;5827;49.482;7.716;2023-02-16T00:28:51;99834.69;;;0.59;100.00
11542;BME280;5827;49.482;7.716;2023-02-16T00:30:54;99831.84;;;0.53;100.00
11542;BME280;5827;49.482;7.716;2023-02-16T00:32:55;99839.28;;;0.57;100.00
11542;BME280;5827;49.482;7.716;2023-02-16T00:34:57;99841.84;;;0.49;100.00
11542;BME280;5827;49.482;7.716;2023-02-16T00:36:59;99845.63;;;0.46;100.00
11542;BME280;5827;49.482;7.716;2023-02-16T00:39:01;99834.56;;;0.43;100.00
11542;BME280;5827;49.482;7.716;2023-02-16T00:41:02;99834.78;;;0.49;100.00
11542;BME280;5827;49.482;7.716;2023-02-16T00:43:05;99837.28;;;0.51;100.00
11542;BME280;5827;49.482;7.716;2023-02-16T00:45:12;99829.44;;;0.23;100.00
11542;BME280;5827;49.482;7.716;2023-02-16T00:47:17;99827.78;;;0.22;100.00
11542;BME280;5827;49.482;7.716;2023-02-16T00:49:20;99822.28;;;0.34;100.00
11542;BME280;5827;49.482;7.716;2023-02-16T00:51:22;99818.47;;;0.28;100.00
11542;BME280;5827;49.482;7.716;2023-02-16T00:53:23;99817.31;;;0.13;100.00
11542;BME280;5827;49.482;7.716;2023-02-16T00:55:27;99820.09;;;0.11;100.00
11542;BME280;5827;49.482;7.716;2023-02-16T00:57:31;99812.81;;;0.23;100.00
11542;BME280;5827;49.482;7.716;2023-02-16T00:59:35;99818.66;;;0.17;100.00
11542;BME280;5827;49.482;7.716;2023-02-16T01:01:37;99813.94;;;0.20;100.00
11542;BME280;5827;49.482;7.716;2023-02-16T01:03:38;99827.47;;;0.25;100.00
11542;BME280;5827;49.482;7.716;2023-02-16T01:05:40;99833.50;;;0.18;100.00
11542;BME280;5827;49.482;7.716;2023-02-16T01:07:42;99836.44;;;0.15;100.00
11542;BME280;5827;49.482;7.716;2023-02-16T01:10:01;99836.81;;;0.20;100.00
11542;BME280;5827;49.482;7.716;2023-02-16T01:12:20;99844.19;;;0.16;100.00
11542;BME280;5827;49.482;7.716;2023-02-16T01:14:23;99840.34;;;0.11;100.00
11542;BME280;5827;49.482;7.716;2023-02-16T01:16:34;99833.28;;;0.11;100.00
11542;BME280;5827;49.482;7.716;2023-02-16T01:18:36;99837.91;;;-0.01;100.00
11542;BME280;5827;49.482;7.716;2023-02-16T01:20:38;99831.28;;;-0.05;100.00
11542;BME280;5827;49.482;7.716;2023-02-16T01:22:39;99825.72;;;-0.02;100.00
11542;BME280;5827;49.482;7.716;2023-02-16T01:24:41;99829.28;;;0.07;100.00
11542;BME280;5827;49.482;7.716;2023-02-16T01:26:44;99823.34;;;0.05;100.00
11542;BME280;5827;49.482;7.716;2023-02-16T01:28:47;99832.75;;;0.08;100.00
11542;BME280;5827;49.482;7.716;2023-02-16T01:30:50;99844.44;;;0.05;100.00
11542;BME280;5827;49.482;7.716;2023-02-16T01:32:53;99842.81;;;-0.06;100.00
11542;BME280;5827;49.482;7.716;2023-02-16T01:34:54;99832.72;;;-0.10;100.00
11542;BME280;5827;49.482;7.716;2023-02-16T01:36:55;99827.84;;;-0.05;100.00
11542;BME280;5827;49.482;7.716;2023-02-16T01:38:56;99823.56;;;-0.06;100.00
11542;BME280;5827;49.482;7.716;2023-02-16T01:41:10;99830.31;;;-0.21;100.00
11542;BME280;5827;49.482;7.716;2023-02-16T01:43:25;99826.41;;;-0.17;100.00
11542;BME280;5827;49.482;7.716;2023-02-16T01:45:29;99827.91;;;-0.15;100.00
11542;BME280;5827;49.482;7.716;2023-02-16T01:47:36;99823.06;;;-0.19;100.00
11542;BME280;5827;49.482;7.716;2023-02-16T01:49:39;99814.19;;;-0.18;100.00
11542;BME280;5827;49.482;7.716;2023-02-16T01:51:49;99816.00;;;-0.19;100.00
11542;BME280;5827;49.482;7.716;2023-02-16T01:53:54;99812.41;;;-0.18;100.00
11542;BME280;5827;49.482;7.716;2023-02-16T01:56:01;99811.72;;;-0.20;100.00
11542;BME280;5827;49.482;7.716;2023-02-16T01:58:05;99808.25;;;-0.20;100.00
11542;BME280;5827;49.482;7.716;2023-02-16T02:00:12;99810.88;;;-0.20;100.00
11542;BME280;5827;49.482;7.716;2023-02-16T02:02:15;99814.72;;;-0.15;100.00
11542;BME280;5827;49.482;7.716;2023-02-16T02:04:24;99815.72;;;-0.16;100.00
11542;BME280;5827;49.482;7.716;2023-02-16T02:06:46;99809.91;;;-0.19;100.00
11542;BME280;5827;49.482;7.716;2023-02-16T02:08:52;99806.00;;;-0.15;100.00
11542;BME280;5827;49.482;7.716;2023-02-16T02:11:06;99810.59;;;-0.17;100.00
11542;BME280;5827;49.482;7.716;2023-02-16T02:13:14;99803.00;;;-0.20;100.00
11542;BME280;5827;49.482;7.716;2023-02-16T02:15:23;99801.63;;;-0.24;100.00
11542;BME280;5827;49.482;7.716;2023-02-16T02:17:27;99804.31;;;-0.34;100.00
11542;BME280;5827;49.482;7.716;2023-02-16T02:19:31;99805.00;;;-0.32;100.00
11542;BME280;5827;49.482;7.716;2023-02-16T02:21:58;99806.19;;;-0.44;100.00
11542;BME280;5827;49.482;7.716;2023-02-16T02:27:11;99807.25;;;-0.65;100.00
11542;BME280;5827;49.482;7.716;2023-02-16T02:29:39;99805.31;;;-0.63;100.00
11542;BME280;5827;49.482;7.716;2023-02-16T02:31:50;99798.09;;;-0.61;100.00
11542;BME280;5827;49.482;7.716;2023-02-16T02:33:59;99802.13;;;-0.66;100.00
11542;BME280;5827;49.482;7.716;2023-02-16T02:36:12;99798.13;;;-0.70;100.00
11542;BME280;5827;49.482;7.716;2023-02-16T02:38:23;99798.28;;;-0.72;100.00
11542;BME280;5827;49.482;7.716;2023-02-16T02:40:37;99792.69;;;-0.59;100.00
11542;BME280;5827;49.482;7.716;2023-02-16T02:42:50;99785.91;;;-0.62;100.00
11542;BME280;5827;49.482;7.716;2023-02-16T02:44:56;99794.47;;;-0.60;100.00
11542;BME280;5827;49.482;7.716;2023-02-16T02:46:58;99790.19;;;-0.61;100.00
11542;BME280;5827;49.482;7.716;2023-02-16T02:48:59;99786.69;;;-0.52;100.00
11542;BME280;5827;49.482;7.716;2023-02-16T02:51:02;99791.38;;;-0.45;100.00
11542;BME280;5827;49.482;7.716;2023-02-16T02:53:22;99790.00;;;-0.49;100.00
11542;BME280;5827;49.482;7.716;2023-02-16T02:55:24;99786.56;;;-0.60;100.00
11542;BME280;5827;49.482;7.716;2023-02-16T02:57:46;99792.38;;;-0.56;100.00
11542;BME280;5827;49.482;7.716;2023-02-16T03:00:08;99793.22;;;-0.56;100.00
11542;BME280;5827;49.482;7.716;2023-02-16T03:02:29;99788.09;;;-0.57;100.00
11542;BME280;5827;49.482;7.716;2023-02-16T03:04:32;99797.97;;;-0.59;100.00
11542;BME280;5827;49.482;7.716;2023-02-16T03:06:37;99798.41;;;-0.64;100.00
11542;BME280;5827;49.482;7.716;2023-02-16T03:08:44;99787.75;;;-0.72;100.00
11542;BME280;5827;49.482;7.716;2023-02-16T03:10:50;99783.06;;;-0.68;100.00
11542;BME280;5827;49.482;7.716;2023-02-16T03:13:15;99787.28;;;-0.85;100.00
11542;BME280;5827;49.482;7.716;2023-02-16T03:15:18;99793.16;;;-0.73;100.00
11542;BME280;5827;49.482;7.716;2023-02-16T03:17:21;99793.19;;;-0.83;100.00
11542;BME280;5827;49.482;7.716;2023-02-16T03:19:47;99789.75;;;-0.84;100.00
11542;BME280;5827;49.482;7.716;2023-02-16T03:22:07;99790.06;;;-0.87;100.00
11542;BME280;5827;49.482;7.716;2023-02-16T03:24:28;99790.28;;;-0.80;100.00
11542;BME280;5827;49.482;7.716;2023-02-16T03:26:48;99796.19;;;-0.96;100.00
11542;BME280;5827;49.482;7.716;2023-02-16T03:29:09;99798.38;;;-1.01;100.00
11542;BME280;5827;49.482;7.716;2023-02-16T03:31:24;99799.66;;;-1.05;100.00
11542;BME280;5827;49.482;7.716;2023-02-16T03:33:28;99791.22;;;-1.09;100.00
11542;BME280;5827;49.482;7.716;2023-02-16T03:35:30;99793.66;;;-0.97;100.00
11542;BME280;5827;49.482;7.716;2023-02-16T03:37:32;99797.28;;;-0.98;100.00
11542;BME280;5827;49.482;7.716;2023-02-16T03:39:34;99792.22;;;-1.19;100.00
11542;BME280;5827;49.482;7.716;2023-02-16T03:41:56;99790.81;;;-1.04;100.00
11542;BME280;5827;49.482;7.716;2023-02-16T03:43:58;99794.25;;;-1.04;100.00
11542;BME280;5827;49.482;7.716;2023-02-16T03:46:01;99797.13;;;-0.97;100.00
11542;BME280;5827;49.482;7.716;2023-02-16T03:48:02;99793.13;;;-1.01;100.00
11542;BME280;5827;49.482;7.716;2023-02-16T03:50:05;99791.88;;;-0.97;100.00
11542;BME280;5827;49.482;7.716;2023-02-16T03:52:07;99794.66;;;-0.98;100.00
11542;BME280;5827;49.482;7.716;2023-02-16T03:54:08;99802.81;;;-1.02;100.00
11542;BME280;5827;49.482;7.716;2023-02-16T03:56:10;99802.81;;;-1.02;100.00
11542;BME280;5827;49.482;7.716;2023-02-16T03:58:13;99794.81;;;-1.00;100.00
11542;BME280;5827;49.482;7.716;2023-02-16T04:00:15;99795.91;;;-1.03;100.00
11542;BME280;5827;49.482;7.716;2023-02-16T04:02:18;99793.66;;;-0.97;100.00
11542;BME280;5827;49.482;7.716;2023-02-16T04:04:20;99794.66;;;-0.98;100.00
11542;BME280;5827;49.482;7.716;2023-02-16T04:06:21;99799.25;;;-1.00;100.00
11542;BME280;5827;49.482;7.716;2023-02-16T04:08:23;99797.34;;;-1.18;100.00
11542;BME280;5827;49.482;7.716;2023-02-16T04:10:24;99798.44;;;-1.20;100.00
11542;BME280;5827;49.482;7.716;2023-02-16T04:12:26;99801.78;;;-1.18;100.00
11542;BME280;5827;49.482;7.716;2023-02-16T04:14:36;99793.97;;;-1.00;100.00
11542;BME280;5827;49.482;7.716;2023-02-16T04:16:37;99798.38;;;-1.01;100.00
11542;BME280;5827;49.482;7.716;2023-02-16T04:18:40;99792.22;;;-1.10;100.00
11542;BME280;5827;49.482;7.716;2023-02-16T04:20:42;99786.25;;;-1.12;100.00
11542;BME280;5827;49.482;7.716;2023-02-16T04:22:43;99789.16;;;-1.15;100.00
11542;BME280;5827;49.482;7.716;2023-02-16T04:24:45;99785.03;;;-1.17;100.00
11542;BME280;5827;49.482;7.716;2023-02-16T04:26:46;99786.69;;;-1.16;100.00
11542;BME280;5827;49.482;7.716;2023-02-16T04:28:48;99793.19;;;-1.20;100.00
11542;BME280;5827;49.482;7.716;2023-02-16T04:30:50;99799.28;;;-1.20;100.00
11542;BME280;5827;49.482;7.716;2023-02-16T04:32:52;99794.34;;;-1.33;100.00
11542;BME280;5827;49.482;7.716;2023-02-16T04:34:55;99798.31;;;-1.29;100.00
11542;BME280;5827;49.482;7.716;2023-02-16T04:36:57;99791.72;;;-1.33;100.00
11542;BME280;5827;49.482;7.716;2023-02-16T04:38:59;99790.88;;;-1.33;100.00
11542;BME280;5827;49.482;7.716;2023-02-16T04:41:00;99786.47;;;-1.33;100.00
11542;BME280;5827;49.482;7.716;2023-02-16T04:43:02;99790.59;;;-1.30;100.00
11542;BME280;5827;49.482;7.716;2023-02-16T04:45:04;99786.97;;;-1.29;100.00
11542;BME280;5827;49.482;7.716;2023-02-16T04:47:05;99790.88;;;-1.33;100.00
11542;BME280;5827;49.482;7.716;2023-02-16T04:49:07;99789.22;;;-1.34;100.00
11542;BME280;5827;49.482;7.716;2023-02-16T04:51:10;99794.34;;;-1.33;100.00
11542;BME280;5827;49.482;7.716;2023-02-16T04:53:11;99792.66;;;-1.34;100.00
11542;BME280;5827;49.482;7.716;2023-02-16T04:55:13;99800.72;;;-1.45;100.00
11542;BME280;5827;49.482;7.716;2023-02-16T04:57:15;99804.34;;;-1.56;100.00
11542;BME280;5827;49.482;7.716;2023-02-16T04:59:16;99799.75;;;-1.54;100.00
11542;BME280;5827;49.482;7.716;2023-02-16T05:01:19;99801.56;;;-1.54;100.00
11542;BME280;5827;49.482;7.716;2023-02-16T05:03:21;99801.97;;;-1.59;100.00
11542;BME280;5827;49.482;7.716;2023-02-16T05:05:22;99802.97;;;-1.60;100.00
11542;BME280;5827;49.482;7.716;2023-02-16T05:07:25;99798.66;;;-1.61;100.00
11542;BME280;5827;49.482;7.716;2023-02-16T05:09:27;99797.13;;;-1.54;100.00
11542;BME280;5827;49.482;7.716;2023-02-16T05:11:29;99797.56;;;-1.58;100.00
11542;BME280;5827;49.482;7.716;2023-02-16T05:13:48;99800.34;;;-1.60;100.00
11542;BME280;5827;49.482;7.716;2023-02-16T05:16:07;99794.09;;;-1.59;100.00
11542;BME280;5827;49.482;7.716;2023-02-16T05:18:08;99791.63;;;-1.60;100.00
11542;BME280;5827;49.482;7.716;2023-02-16T05:20:11;99793.41;;;-1.61;100.00
11542;BME280;5827;49.482;7.716;2023-02-16T05:22:13;99781.38;;;-1.54;100.00
11542;BME280;5827;49.482;7.716;2023-02-16T05:24:15;99789.94;;;-1.51;100.00
11542;BME280;5827;49.482;7.716;2023-02-16T05:26:17;99789.66;;;-1.48;100.00
11542;BME280;5827;49.482;7.716;2023-02-16T05:28:18;99796.88;;;-1.50;100.00
11542;BME280;5827;49.482;7.716;2023-02-16T05:30:20;99792.72;;;-1.63;100.00
11542;BME280;5827;49.482;7.716;2023-02-16T05:32:21;99800.03;;;-1.57;100.00
11542;BME280;5827;49.482;7.716;2023-02-16T05:34:23;99792.72;;;-1.53;100.00
11542;BME280;5827;49.482;7.716;2023-02-16T05:36:24;99797.69;;;-1.50;100.00
11542;BME280;5827;49.482;7.716;2023-02-16T05:38:26;99799.22;;;-1.57;100.00
11542;BME280;5827;49.482;7.716;2023-02-16T05:40:28;99796.44;;;-1.65;100.00
11542;BME280;5827;49.482;7.716;2023-02-16T05:42:30;99800.59;;;-1.63;100.00
11542;BME280;5827;49.482;7.716;2023-02-16T05:44:31;99806.00;;;-1.64;100.00
11542;BME280;5827;49.482;7.716;2023-02-16T05:46:35;99803.22;;;-1.63;100.00
11542;BME280;5827;49.482;7.716;2023-02-16T05:48:37;99809.88;;;-1.59;100.00
11542;BME280;5827;49.482;7.716;2023-02-16T05:50:39;99816.50;;;-1.55;100.00
11542;BME280;5827;49.482;7.716;2023-02-16T05:52:40;99814.56;;;-1.52;100.00
11542;BME280;5827;49.482;7.716;2023-02-16T05:54:41;99822.84;;;-1.47;100.00
11542;BME280;5827;49.482;7.716;2023-02-16T05:56:46;99829.91;;;-1.48;100.00
11542;BME280;5827;49.482;7.716;2023-02-16T05:58:48;99827.97;;;-1.46;100.00
11542;BME280;5827;49.482;7.716;2023-02-16T06:00:49;99834.06;;;-1.45;100.00
11542;BME280;5827;49.482;7.716;2023-02-16T06:02:51;99830.47;;;-1.73;100.00
11542;BME280;5827;49.482;7.716;2023-02-16T06:04:52;99827.97;;;-1.75;100.00
11542;BME280;5827;49.482;7.716;2023-02-16T06:06:54;99826.72;;;-1.61;100.00
11542;BME280;5827;49.482;7.716;2023-02-16T06:08:55;99825.91;;;-1.62;100.00
11542;BME280;5827;49.482;7.716;2023-02-16T06:10:57;99824.50;;;-1.56;100.00
11542;BME280;5827;49.482;7.716;2023-02-16T06:13:00;99820.78;;;-1.54;100.00
11542;BME280;5827;49.482;7.716;2023-02-16T06:15:02;99835.31;;;-1.59;100.00
11542;BME280;5827;49.482;7.716;2023-02-16T06:17:03;99834.91;;;-1.64;100.00
11542;BME280;5827;49.482;7.716;2023-02-16T06:19:05;99835.59;;;-1.62;100.00
11542;BME280;5827;49.482;7.716;2023-02-16T06:21:07;99837.25;;;-1.61;100.00
11542;BME280;5827;49.482;7.716;2023-02-16T06:23:10;99830.47;;;-1.64;100.00
11542;BME280;5827;49.482;7.716;2023-02-16T06:25:13;99833.78;;;-1.62;100.00
11542;BME280;5827;49.482;7.716;2023-02-16T06:27:14;99836.28;;;-1.60;100.00
11542;BME280;5827;49.482;7.716;2023-02-16T06:29:17;99837.53;;;-1.74;100.00
11542;BME280;5827;49.482;7.716;2023-02-16T06:31:19;99841.56;;;-1.60;100.00
11542;BME280;5827;49.482;7.716;2023-02-16T06:33:20;99843.63;;;-1.64;100.00
11542;BME280;5827;49.482;7.716;2023-02-16T06:35:22;99840.16;;;-1.64;100.00
11542;BME280;5827;49.482;7.716;2023-02-16T06:37:23;99845.53;;;-1.66;100.00
11542;BME280;5827;49.482;7.716;2023-02-16T06:39:25;99843.75;;;-1.65;100.00
11542;BME280;5827;49.482;7.716;2023-02-16T06:41:26;99842.66;;;-1.63;100.00
11542;BME280;5827;49.482;7.716;2023-02-16T06:43:37;99843.47;;;-1.62;100.00
11542;BME280;5827;49.482;7.716;2023-02-16T06:45:39;99842.78;;;-1.55;100.00
11542;BME280;5827;49.482;7.716;2023-02-16T06:47:41;99838.78;;;-1.59;100.00
11542;BME280;5827;49.482;7.716;2023-02-16T06:49:42;99838.38;;;-1.64;100.00
11542;BME280;5827;49.482;7.716;2023-02-16T06:51:44;99837.13;;;-1.60;100.00
11542;BME280;5827;49.482;7.716;2023-02-16T06:53:46;99839.19;;;-1.63;100.00
11542;BME280;5827;49.482;7.716;2023-02-16T06:55:49;99839.59;;;-1.58;100.00
11542;BME280;5827;49.482;7.716;2023-02-16T06:57:51;99840.69;;;-1.61;100.00
11542;BME280;5827;49.482;7.716;2023-02-16T06:59:52;99833.50;;;-1.59;100.00
11542;BME280;5827;49.482;7.716;2023-02-16T07:01:56;99846.09;;;-1.52;100.00
11542;BME280;5827;49.482;7.716;2023-02-16T07:03:58;99844.03;;;-1.59;100.00
11542;BME280;5827;49.482;7.716;2023-02-16T07:05:59;99836.41;;;-1.52;100.00
11542;BME280;5827;49.482;7.716;2023-02-16T07:08:04;99844.03;;;-1.49;100.00
11542;BME280;5827;49.482;7.716;2023-02-16T07:10:07;99840.69;;;-1.41;100.00
11542;BME280;5827;49.482;7.716;2023-02-16T07:12:08;99847.75;;;-1.42;100.00
11542;BME280;5827;49.482;7.716;2023-02-16T07:14:10;99854.53;;;-1.39;100.00
11542;BME280;5827;49.482;7.716;2023-02-16T07:16:11;99856.88;;;-1.46;100.00
11542;BME280;5827;49.482;7.716;2023-02-16T07:18:14;99863.22;;;-1.39;100.00
11542;BME280;5827;49.482;7.716;2023-02-16T07:20:16;99862.00;;;-1.35;100.00
11542;BME280;5827;49.482;7.716;2023-02-16T07:22:18;99855.22;;;-1.57;100.00
11542;BME280;5827;49.482;7.716;2023-02-16T07:24:20;99856.47;;;-1.41;100.00
11542;BME280;5827;49.482;7.716;2023-02-16T07:26:22;99860.47;;;-1.37;100.00
11542;BME280;5827;49.482;7.716;2023-02-16T07:28:24;99867.09;;;-1.33;100.00
11542;BME280;5827;49.482;7.716;2023-02-16T07:30:25;99860.47;;;-1.37;100.00
11542;BME280;5827;49.482;7.716;2023-02-16T07:32:28;99865.75;;;-1.37;100.00
11542;BME280;5827;49.482;7.716;2023-02-16T07:34:32;99857.84;;;-1.27;100.00
11542;BME280;5827;49.482;7.716;2023-02-16T07:36:34;99865.00;;;-1.20;100.00
11542;BME280;5827;49.482;7.716;2023-02-16T07:38:36;99866.81;;;-1.20;100.00
11542;BME280;5827;49.482;7.716;2023-02-16T07:40:38;99876.22;;;-1.18;100.00
11542;BME280;5827;49.482;7.716;2023-02-16T07:42:40;99885.91;;;-1.09;100.00
11542;BME280;5827;49.482;7.716;2023-02-16T07:44:42;99889.09;;;-1.05;100.00
11542;BME280;5827;49.482;7.716;2023-02-16T07:46:43;99887.25;;;-0.95;100.00
11542;BME280;5827;49.482;7.716;2023-02-16T07:48:46;99888.25;;;-0.96;100.00
11542;BME280;5827;49.482;7.716;2023-02-16T07:50:49;99894.44;;;-0.97;100.00
11542;BME280;5827;49.482;7.716;2023-02-16T07:52:50;99881.69;;;-0.92;100.00
11542;BME280;5827;49.482;7.716;2023-02-16T07:54:52;99878.94;;;-0.90;100.00
11542;BME280;5827;49.482;7.716;2023-02-16T07:56:53;99875.59;;;-0.83;100.00
11542;BME280;5827;49.482;7.716;2023-02-16T07:58:56;99880.56;;;-0.80;100.00
11542;BME280;5827;49.482;7.716;2023-02-16T08:01:05;99868.19;;;-0.69;100.00
11542;BME280;5827;49.482;7.716;2023-02-16T08:03:08;99869.69;;;-0.57;100.00
11542;BME280;5827;49.482;7.716;2023-02-16T08:05:09;99879.53;;;-0.59;100.00
11542;BME280;5827;49.482;7.716;2023-02-16T08:07:13;99874.38;;;-0.51;100.00
11542;BME280;5827;49.482;7.716;2023-02-16T08:09:15;99876.00;;;-0.40;100.00
11542;BME280;5827;49.482;7.716;2023-02-16T08:11:19;99870.97;;;-0.34;100.00
11542;BME280;5827;49.482;7.716;2023-02-16T08:13:21;99866.09;;;-0.29;100.00
11542;BME280;5827;49.482;7.716;2023-02-16T08:15:22;99861.38;;;-0.25;100.00
11542;BME280;5827;49.482;7.716;2023-02-16T08:17:24;99866.56;;;-0.15;100.00
11542;BME280;5827;49.482;7.716;2023-02-16T08:19:25;99865.03;;;-0.08;100.00
11542;BME280;5827;49.482;7.716;2023-02-16T08:21:30;99860.53;;;0.02;100.00
11542;BME280;5827;49.482;7.716;2023-02-16T08:23:33;99859.53;;;0.03;100.00
11542;BME280;5827;49.482;7.716;2023-02-16T08:25:35;99867.25;;;0.14;100.00
11542;BME280;5827;49.482;7.716;2023-02-16T08:27:37;99875.75;;;0.26;100.00
11542;BME280;5827;49.482;7.716;2023-02-16T08:29:39;99865.06;;;0.28;100.00
11542;BME280;5827;49.482;7.716;2023-02-16T08:31:41;99872.75;;;0.39;100.00
11542;BME280;5827;49.482;7.716;2023-02-16T08:33:42;99877.72;;;0.42;100.00
11542;BME280;5827;49.482;7.716;2023-02-16T08:35:44;99879.91;;;0.46;100.00
11542;BME280;5827;49.482;7.716;2023-02-16T08:37:46;99877.31;;;0.55;100.00
11542;BME280;5827;49.482;7.716;2023-02-16T08:39:49;99871.75;;;0.58;100.00
11542;BME280;5827;49.482;7.716;2023-02-16T08:41:51;99875.75;;;0.62;100.00
11542;BME280;5827;49.482;7.716;2023-02-16T08:43:53;99880.78;;;0.73;100.00
11542;BME280;5827;49.482;7.716;2023-02-16T08:45:55;99877.00;;;0.75;100.00
11542;BME280;5827;49.482;7.716;2023-02-16T08:47:56;99886.13;;;0.81;100.00
11542;BME280;5827;49.482;7.716;2023-02-16T08:50:00;99885.19;;;0.90;100.00
11542;BME280;5827;49.482;7.716;2023-02-16T08:52:01;99889.72;;;0.98;100.00
11542;BME280;5827;49.482;7.716;2023-02-16T08:54:05;99889.56;;;0.99;100.00
11542;BME280;5827;49.482;7.716;2023-02-16T08:56:10;99886.00;;;1.09;100.00
11542;BME280;5827;49.482;7.716;2023-02-16T08:58:11;99900.91;;;1.18;100.00
11542;BME280;5827;49.482;7.716;2023-02-16T09:00:15;99895.63;;;1.18;100.00
11542;BME280;5827;49.482;7.716;2023-02-16T09:02:42;99896.72;;;1.33;100.00
11542;BME280;5827;49.482;7.716;2023-02-16T09:04:44;99899.38;;;1.41;100.00
11542;BME280;5827;49.482;7.716;2023-02-16T09:06:47;99896.50;;;1.52;100.00
11542;BME280;5827;49.482;7.716;2023-02-16T09:08:49;99893.56;;;1.64;100.00
11542;BME280;5827;49.482;7.716;2023-02-16T09:10:52;99894.59;;;1.71;100.00
11542;BME280;5827;49.482;7.716;2023-02-16T09:12:55;99892.50;;;1.83;100.00
11542;BME280;5827;49.482;7.716;2023-02-16T09:14:57;99886.78;;;1.95;100.00
11542;BME280;5827;49.482;7.716;2023-02-16T09:16:58;99885.16;;;2.02;100.00
11542;BME280;5827;49.482;7.716;2023-02-16T09:19:00;99875.78;;;2.16;100.00
11542;BME280;5827;49.482;7.716;2023-02-16T09:21:04;99869.16;;;2.28;100.00
11542;BME280;5827;49.482;7.716;2023-02-16T09:23:06;99881.94;;;2.49;100.00
11542;BME280;5827;49.482;7.716;2023-02-16T09:25:08;99876.31;;;2.61;100.00
11542;BME280;5827;49.482;7.716;2023-02-16T09:27:10;99876.50;;;2.75;100.00
11542;BME280;5827;49.482;7.716;2023-02-16T09:29:13;99870.03;;;2.86;100.00
11542;BME280;5827;49.482;7.716;2023-02-16T09:31:17;99872.84;;;3.01;100.00
11542;BME280;5827;49.482;7.716;2023-02-16T09:33:22;99871.19;;;3.16;100.00
11542;BME280;5827;49.482;7.716;2023-02-16T09:35:24;99862.38;;;3.24;100.00
11542;BME280;5827;49.482;7.716;2023-02-16T09:37:26;99864.00;;;3.41;100.00
11542;BME280;5827;49.482;7.716;2023-02-16T09:39:27;99871.41;;;3.54;100.00
11542;BME280;5827;49.482;7.716;2023-02-16T09:41:34;99871.84;;;3.66;100.00
11542;BME280;5827;49.482;7.716;2023-02-16T09:43:44;99869.66;;;3.77;100.00
11542;BME280;5827;49.482;7.716;2023-02-16T09:45:50;99858.38;;;3.83;100.00
11542;BME280;5827;49.482;7.716;2023-02-16T09:47:52;99861.44;;;4.03;100.00
11542;BME280;5827;49.482;7.716;2023-02-16T09:49:55;99852.25;;;4.14;100.00
11542;BME280;5827;49.482;7.716;2023-02-16T09:52:03;99850.31;;;4.31;100.00
11542;BME280;5827;49.482;7.716;2023-02-16T09:54:22;99857.53;;;4.45;100.00
11542;BME280;5827;49.482;7.716;2023-02-16T09:56:35;99861.38;;;4.57;100.00
11542;BME280;5827;49.482;7.716;2023-02-16T09:58:43;99850.19;;;4.70;100.00
11542;BME280;5827;49.482;7.716;2023-02-16T10:00:48;99851.13;;;4.77;100.00
11542;BME280;5827;49.482;7.716;2023-02-16T10:02:57;99856.19;;;4.87;100.00
11542;BME280;5827;49.482;7.716;2023-02-16T10:05:13;99847.34;;;5.09;100.00
11542;BME280;5827;49.482;7.716;2023-02-16T10:07:27;99855.34;;;5.24;100.00
11542;BME280;5827;49.482;7.716;2023-02-16T10:09:31;99860.28;;;5.42;100.00
11542;BME280;5827;49.482;7.716;2023-02-16T10:11:35;99850.66;;;5.56;100.00
11542;BME280;5827;49.482;7.716;2023-02-16T10:13:42;99859.91;;;5.75;100.00
11542;BME280;5827;49.482;7.716;2023-02-16T10:15:52;99867.59;;;5.99;100.00
11542;BME280;5827;49.482;7.716;2023-02-16T10:18:01;99871.13;;;6.21;99.85
11542;BME280;5827;49.482;7.716;2023-02-16T10:20:11;99873.25;;;6.47;99.73
11542;BME280;5827;49.482;7.716;2023-02-16T10:22:25;99860.34;;;6.66;98.97
11542;BME280;5827;49.482;7.716;2023-02-16T10:24:30;99869.31;;;6.86;98.49
11542;BME280;5827;49.482;7.716;2023-02-16T10:26:42;99866.97;;;6.98;98.17
11542;BME280;5827;49.482;7.716;2023-02-16T10:28:47;99867.88;;;7.11;97.39
11542;BME280;5827;49.482;7.716;2023-02-16T10:30:54;99873.56;;;7.30;97.23
11542;BME280;5827;49.482;7.716;2023-02-16T10:33:05;99870.09;;;7.36;97.69
11542;BME280;5827;49.482;7.716;2023-02-16T10:35:14;99863.59;;;7.45;95.83
11542;BME280;5827;49.482;7.716;2023-02-16T10:37:39;99866.03;;;7.75;95.82
11542;BME280;5827;49.482;7.716;2023-02-16T10:39:50;99871.84;;;7.92;93.84
11542;BME280;5827;49.482;7.716;2023-02-16T10:41:59;99867.63;;;8.17;92.81
11542;BME280;5827;49.482;7.716;2023-02-16T10:44:10;99866.03;;;8.29;90.14
11542;BME280;5827;49.482;7.716;2023-02-16T10:46:18;99859.34;;;8.53;89.91
11542;BME280;5827;49.482;7.716;2023-02-16T10:48:23;99865.50;;;8.60;88.95
11542;BME280;5827;49.482;7.716;2023-02-16T10:50:28;99857.91;;;8.77;87.86
11542;BME280;5827;49.482;7.716;2023-02-16T10:52:34;99858.94;;;8.96;87.93
11542;BME280;5827;49.482;7.716;2023-02-16T10:54:38;99858.34;;;9.01;87.00
11542;BME280;5827;49.482;7.716;2023-02-16T10:56:46;99857.31;;;9.08;87.16
11542;BME280;5827;49.482;7.716;2023-02-16T10:58:52;99852.13;;;9.20;86.62
11542;BME280;5827;49.482;7.716;2023-02-16T11:00:59;99852.38;;;9.12;85.98
11542;BME280;5827;49.482;7.716;2023-02-16T11:03:09;99859.53;;;9.25;85.84
11542;BME280;5827;49.482;7.716;2023-02-16T11:05:34;99852.72;;;9.42;84.97
11542;BME280;5827;49.482;7.716;2023-02-16T11:07:51;99853.56;;;9.49;84.77
11542;BME280;5827;49.482;7.716;2023-02-16T11:09:54;99851.25;;;9.59;84.24